createdAt,value
2023-03-04T00:03:03.137Z,55.13
2023-03-04T00:06:07.631Z,50.77
2023-03-04T00:09:11.311Z,50.27
2023-03-04T00:12:16.562Z,50.33
2023-03-04T00:15:20.297Z,50.07
2023-03-04T00:18:24.017Z,48.53
2023-03-04T00:21:27.718Z,48.53
2023-03-04T00:24:31.382Z,49.67
2023-03-04T00:27:36.316Z,54.27
2023-03-04T00:30:39.913Z,50.70
2023-03-04T00:33:44.574Z,48.80
2023-03-04T00:36:48.556Z,51.07
2023-03-04T00:39:52.133Z,50.87
2023-03-04T00:42:57.168Z,52.77
2023-03-04T00:46:00.895Z,53.33
2023-03-04T00:49:04.492Z,51.57
2023-03-04T00:52:08.419Z,48.90
2023-03-04T00:55:12.219Z,47.10
2023-03-04T00:58:17.266Z,47.13
2023-03-04T01:01:20.989Z,47.37
2023-03-04T01:04:24.618Z,45.47
2023-03-04T01:07:28.340Z,45.13
2023-03-04T01:10:32.087Z,43.50
2023-03-04T01:13:37.165Z,44.27
2023-03-04T01:16:40.816Z,39.70
2023-03-04T01:19:44.413Z,41.57
2023-03-04T01:22:47.992Z,42.97
2023-03-04T01:25:51.582Z,40.93
2023-03-04T01:28:57.204Z,41.40
2023-03-04T01:32:00.862Z,39.70
2023-03-04T01:35:04.790Z,38.03
2023-03-04T01:38:08.393Z,37.77
2023-03-04T01:41:13.935Z,37.07
2023-03-04T01:44:19.366Z,39.47
2023-03-04T01:47:32.573Z,40.20
2023-03-04T01:50:37.262Z,38.10
2023-03-04T01:53:41.255Z,40.83
2023-03-04T01:56:47.090Z,41.87
2023-03-04T02:00:19.800Z,39.47
2023-03-04T02:03:23.902Z,38.90
2023-03-04T02:06:27.652Z,39.30
2023-03-04T02:09:32.365Z,39.13
2023-03-04T02:12:36.194Z,50.17
2023-03-04T02:15:41.792Z,46.07
2023-03-04T02:18:45.949Z,43.17
2023-03-04T02:21:49.687Z,46.57
2023-03-04T02:24:58.194Z,39.00
2023-03-04T02:28:03.921Z,41.70
2023-03-04T02:31:07.997Z,40.77
2023-03-04T02:34:15.959Z,43.03
2023-03-04T02:37:21.990Z,42.93
2023-03-04T02:40:32.639Z,41.37
2023-03-04T02:43:37.845Z,41.27
2023-03-04T02:46:41.616Z,43.00
2023-03-04T02:49:46.120Z,41.13
2023-03-04T02:52:51.489Z,38.77
2023-03-04T02:55:56.025Z,39.90
2023-03-04T02:59:02.774Z,38.20
2023-03-04T03:02:07.097Z,38.20
2023-03-04T03:05:11.185Z,38.40
2023-03-04T03:08:15.147Z,39.93
2023-03-04T03:11:18.821Z,41.17
2023-03-04T03:14:23.945Z,39.23
2023-03-04T03:17:27.844Z,38.97
2023-03-04T03:20:31.534Z,35.63
2023-03-04T03:23:35.661Z,37.57
2023-03-04T03:26:40.145Z,41.60
2023-03-04T03:29:46.336Z,37.63
2023-03-04T03:32:49.840Z,38.07
2023-03-04T03:35:53.618Z,39.60
2023-03-04T03:38:57.197Z,39.00
2023-03-04T03:42:00.930Z,37.10
2023-03-04T03:45:06.734Z,37.03
2023-03-04T03:48:10.315Z,37.03
2023-03-04T03:51:13.939Z,35.23
2023-03-04T03:54:17.615Z,36.17
2023-03-04T03:57:21.160Z,33.90
2023-03-04T04:00:26.234Z,32.83
2023-03-04T04:03:29.872Z,34.73
2023-03-04T04:06:33.406Z,36.30
2023-03-04T04:09:36.944Z,36.43
2023-03-04T04:12:40.512Z,47.50
2023-03-04T04:15:45.670Z,38.60
2023-03-04T04:18:49.360Z,38.37
2023-03-04T04:21:52.896Z,38.90
2023-03-04T04:24:56.576Z,39.77
2023-03-04T04:28:00.279Z,37.53
2023-03-04T04:31:09.357Z,35.23
2023-03-04T04:34:13.046Z,38.20
2023-03-04T04:37:16.628Z,37.60
2023-03-04T04:40:20.546Z,37.77
2023-03-04T04:43:24.015Z,38.77
2023-03-04T04:46:30.142Z,34.97
2023-03-04T04:49:33.799Z,35.30
2023-03-04T04:52:37.334Z,36.53
2023-03-04T04:55:40.834Z,34.63
2023-03-04T04:58:44.504Z,35.03
2023-03-04T05:01:49.794Z,32.67
2023-03-04T05:04:53.323Z,34.33
2023-03-04T05:07:57.018Z,33.70
2023-03-04T05:11:00.591Z,32.53
2023-03-04T05:14:04.257Z,31.47
2023-03-04T05:17:09.364Z,32.47
2023-03-04T05:20:13.932Z,30.60
2023-03-04T05:23:17.602Z,31.53
2023-03-04T05:26:21.100Z,30.47
2023-03-04T05:29:24.895Z,31.20
2023-03-04T05:32:29.966Z,27.37
2023-03-04T05:35:33.732Z,27.43
2023-03-04T05:38:37.485Z,25.23
2023-03-04T05:41:41.068Z,25.60
2023-03-04T05:44:44.646Z,25.53
2023-03-04T05:47:49.719Z,25.03
2023-03-04T05:50:56.704Z,26.00
2023-03-04T05:54:00.334Z,25.67
2023-03-04T05:57:03.891Z,22.93
2023-03-04T06:00:10.812Z,27.13
2023-03-04T06:03:20.895Z,27.53
2023-03-04T06:06:24.736Z,30.67
2023-03-04T06:09:28.512Z,30.97
2023-03-04T06:12:32.441Z,31.53
2023-03-04T06:15:36.269Z,30.40
2023-03-04T06:18:41.457Z,39.33
2023-03-04T06:21:45.313Z,31.43
2023-03-04T06:24:49.184Z,43.93
2023-03-04T06:27:55.086Z,29.87
2023-03-04T06:30:59.647Z,30.30
2023-03-04T06:34:04.790Z,27.17
2023-03-04T06:37:08.635Z,28.63
2023-03-04T06:40:13.522Z,29.07
2023-03-04T06:43:17.226Z,26.73
2023-03-04T06:46:20.969Z,27.70
2023-03-04T06:49:26.223Z,27.37
2023-03-04T06:52:30.070Z,28.87
2023-03-04T06:55:33.964Z,28.50
2023-03-04T06:58:38.490Z,30.50
2023-03-04T07:01:42.332Z,30.43
2023-03-04T07:04:47.593Z,29.37
2023-03-04T07:07:51.403Z,29.70
2023-03-04T07:10:55.025Z,30.37
2023-03-04T07:13:58.903Z,28.77
2023-03-04T07:17:02.540Z,31.27
2023-03-04T07:20:08.745Z,31.97
2023-03-04T07:23:12.450Z,29.47
2023-03-04T07:26:16.271Z,34.80
2023-03-04T07:29:20.028Z,34.27
2023-03-04T07:32:23.761Z,32.07
2023-03-04T07:35:29.111Z,31.30
2023-03-04T07:38:32.729Z,33.50
2023-03-04T07:41:37.568Z,33.70
2023-03-04T07:44:41.465Z,33.17
2023-03-04T07:47:45.254Z,30.93
2023-03-04T07:50:50.442Z,32.90
2023-03-04T07:53:58.161Z,34.97
2023-03-04T07:57:01.994Z,34.43
2023-03-04T08:00:06.169Z,34.37
2023-03-04T08:03:15.937Z,36.90
2023-03-04T08:06:22.121Z,41.57
2023-03-04T08:09:25.969Z,43.60
2023-03-04T08:12:30.121Z,43.53
2023-03-04T08:15:35.439Z,44.47
2023-03-04T08:18:39.982Z,42.07
2023-03-04T08:21:45.336Z,50.67
2023-03-04T08:24:49.124Z,48.90
2023-03-04T08:27:52.873Z,51.73
2023-03-04T08:30:56.975Z,53.23
2023-03-04T08:34:00.745Z,44.67
2023-03-04T08:37:05.971Z,42.13
2023-03-04T08:40:11.208Z,45.20
2023-03-04T08:43:14.952Z,45.63
2023-03-04T08:46:18.793Z,46.73
2023-03-04T08:49:22.693Z,44.40
2023-03-04T08:52:27.944Z,40.60
2023-03-04T08:55:31.728Z,44.13
2023-03-04T08:58:35.457Z,46.07
2023-03-04T09:01:39.447Z,48.93
2023-03-04T09:04:43.324Z,46.53
2023-03-04T09:07:48.744Z,47.40
2023-03-04T09:10:55.117Z,51.87
2023-03-04T09:13:58.965Z,52.13
2023-03-04T09:17:02.892Z,55.13
2023-03-04T09:20:08.944Z,53.37
2023-03-04T09:23:14.273Z,52.90
2023-03-04T09:26:23.064Z,51.17
2023-03-04T09:29:27.027Z,51.30
2023-03-04T09:32:30.898Z,54.77
2023-03-04T09:35:34.929Z,50.73
2023-03-04T09:38:40.781Z,51.93
2023-03-04T09:41:47.783Z,50.77
2023-03-04T09:44:51.998Z,48.40
2023-03-04T09:47:58.102Z,47.20
2023-03-04T09:51:19.394Z,47.60
2023-03-04T09:54:34.267Z,50.57
2023-03-04T09:57:48.795Z,49.50
2023-03-04T10:00:57.522Z,44.70
2023-03-04T10:04:05.867Z,46.80
2023-03-04T10:07:17.705Z,44.40
2023-03-04T10:10:28.560Z,45.20
2023-03-04T10:13:39.446Z,43.90
2023-03-04T10:16:47.427Z,42.03
2023-03-04T10:19:59.277Z,42.43
2023-03-04T10:23:12.253Z,43.23
2023-03-04T10:26:21.201Z,44.17
2023-03-04T10:29:26.017Z,43.30
2023-03-04T10:32:29.882Z,40.10
2023-03-04T10:35:38.466Z,33.43
2023-03-04T10:38:44.336Z,31.10
2023-03-04T10:41:59.025Z,35.27
2023-03-04T10:45:02.816Z,32.63
2023-03-04T10:48:07.397Z,33.63
2023-03-04T10:51:21.224Z,32.27
2023-03-04T10:54:30.360Z,32.37
2023-03-04T10:57:41.044Z,33.23
2023-03-04T11:00:45.391Z,34.73
2023-03-04T11:03:51.384Z,33.70
2023-03-04T11:06:55.872Z,33.73
2023-03-04T11:10:10.047Z,33.63
2023-03-04T11:13:20.229Z,33.37
2023-03-04T11:16:29.885Z,34.67
2023-03-04T11:19:39.841Z,36.37
2023-03-04T11:22:46.145Z,36.33
2023-03-04T11:25:54.155Z,37.70
2023-03-04T11:29:04.049Z,35.10
2023-03-04T11:32:13.449Z,33.67
2023-03-04T11:35:24.065Z,34.43
2023-03-04T11:38:34.129Z,32.30
2023-03-04T11:41:41.604Z,34.73
2023-03-04T11:44:47.030Z,35.87
2023-03-04T11:48:02.241Z,36.50
2023-03-04T11:51:13.648Z,34.60
2023-03-04T11:54:31.717Z,31.63
2023-03-04T11:57:45.529Z,30.63
2023-03-04T12:00:57.881Z,27.33
2023-03-04T12:04:42.086Z,27.30
2023-03-04T12:08:00.911Z,22.63
2023-03-04T12:11:07.826Z,24.20
2023-03-04T12:14:27.004Z,25.10
2023-03-04T12:17:54.554Z,27.73
2023-03-04T12:21:38.050Z,28.73
2023-03-04T12:25:00.761Z,26.97
2023-03-04T12:28:26.135Z,28.50
2023-03-04T12:31:39.288Z,22.90
2023-03-04T12:34:59.549Z,26.20
2023-03-04T12:38:20.469Z,25.50
2023-03-04T12:41:31.701Z,22.20
2023-03-04T12:44:41.621Z,21.90
2023-03-04T12:47:54.112Z,24.57
2023-03-04T12:51:29.743Z,25.77
2023-03-04T12:54:36.432Z,26.07
2023-03-04T12:57:40.898Z,28.60
2023-03-04T13:00:53.682Z,25.53
2023-03-04T13:04:04.412Z,24.20
2023-03-04T13:07:22.985Z,23.63
2023-03-04T13:10:26.918Z,20.43
2023-03-04T13:13:39.476Z,21.87
2023-03-04T13:16:46.022Z,23.90
2023-03-04T13:19:52.745Z,22.53
2023-03-04T13:22:59.920Z,23.63
2023-03-04T13:26:22.882Z,23.17
2023-03-04T13:29:35.029Z,24.53
2023-03-04T13:32:42.679Z,17.73
2023-03-04T13:35:53.059Z,14.27
2023-03-04T13:39:03.201Z,12.50
2023-03-04T13:42:40.438Z,13.90
2023-03-04T13:45:44.229Z,14.07
2023-03-04T13:49:04.243Z,15.33
2023-03-04T13:52:39.790Z,15.87
2023-03-04T13:55:45.351Z,13.70
2023-03-04T13:58:51.154Z,15.70
2023-03-04T14:02:01.325Z,17.50
2023-03-04T14:05:05.430Z,19.27
2023-03-04T14:08:21.396Z,18.83
2023-03-04T14:11:31.778Z,17.20
2023-03-04T14:14:49.711Z,18.90
2023-03-04T14:17:55.373Z,17.63
2023-03-04T14:21:01.851Z,19.37
2023-03-04T14:24:09.772Z,19.20
2023-03-04T14:27:15.841Z,19.47
2023-03-04T14:30:39.548Z,19.90
2023-03-04T14:33:48.969Z,20.37
2023-03-04T14:36:53.022Z,23.33
2023-03-04T14:39:59.498Z,21.73
2023-03-04T14:43:08.772Z,21.73
2023-03-04T14:46:17.103Z,22.20
2023-03-04T14:49:21.233Z,21.33
2023-03-04T14:52:34.201Z,21.67
2023-03-04T14:55:38.142Z,22.33
2023-03-04T14:58:54.757Z,20.23
2023-03-04T15:02:19.296Z,21.33
2023-03-04T15:05:27.158Z,19.63
2023-03-04T15:08:36.281Z,20.37
2023-03-04T15:11:48.390Z,18.73
2023-03-04T15:14:55.220Z,21.67
2023-03-04T15:18:00.797Z,21.53
2023-03-04T15:21:07.770Z,21.90
2023-03-04T15:24:13.791Z,23.07
2023-03-04T15:27:18.004Z,24.13
2023-03-04T15:30:25.761Z,23.30
2023-03-04T15:33:29.670Z,22.63
2023-03-04T15:36:33.453Z,23.03
2023-03-04T15:39:37.099Z,28.67
2023-03-04T15:42:40.892Z,30.47
2023-03-04T15:45:46.462Z,26.60
2023-03-04T15:48:51.074Z,22.67
2023-03-04T15:51:55.378Z,23.63
2023-03-04T15:55:00.311Z,22.63
2023-03-04T15:58:05.068Z,21.77
2023-03-04T16:01:16.279Z,19.57
2023-03-04T16:04:20.243Z,20.67
2023-03-04T16:07:27.739Z,20.20
2023-03-04T16:10:32.134Z,20.37
2023-03-04T16:13:35.988Z,20.20
2023-03-04T16:16:41.312Z,19.63
2023-03-04T16:19:45.378Z,21.03
2023-03-04T16:22:52.261Z,21.90
2023-03-04T16:25:58.059Z,22.27
2023-03-04T16:29:02.627Z,23.10
2023-03-04T16:32:08.540Z,22.57
2023-03-04T16:35:13.804Z,23.80
2023-03-04T16:38:27.362Z,23.93
2023-03-04T16:41:32.018Z,21.93
2023-03-04T16:44:35.824Z,22.50
2023-03-04T16:47:41.171Z,22.40
2023-03-04T16:50:46.118Z,21.07
2023-03-04T16:53:53.092Z,21.93
2023-03-04T16:56:56.900Z,21.57
2023-03-04T17:00:01.747Z,25.00
2023-03-04T17:03:07.125Z,27.07
2023-03-04T17:06:11.708Z,72.03
2023-03-04T17:09:15.850Z,40.07
2023-03-04T17:12:19.776Z,38.30
2023-03-04T17:15:23.761Z,44.83
2023-03-04T17:18:28.943Z,33.37
2023-03-04T17:21:32.721Z,35.30
2023-03-04T17:24:36.568Z,51.33
2023-03-04T17:27:40.589Z,63.77
2023-03-04T17:30:44.899Z,81.43
2023-03-04T17:33:51.069Z,132.60
2023-03-04T17:36:54.891Z,69.90
2023-03-04T17:39:58.626Z,36.13
2023-03-04T17:43:03.667Z,49.23
2023-03-04T17:46:10.600Z,71.30
2023-03-04T17:49:16.089Z,68.03
2023-03-04T17:52:20.371Z,56.83
2023-03-04T17:55:24.092Z,47.70
2023-03-04T17:58:28.506Z,91.73
2023-03-04T18:01:32.287Z,82.83
2023-03-04T18:04:37.562Z,60.87
2023-03-04T18:07:41.407Z,40.37
2023-03-04T18:10:45.184Z,37.90
2023-03-04T18:13:49.203Z,37.67
2023-03-04T18:16:55.048Z,36.90
2023-03-04T18:20:01.993Z,34.00
2023-03-04T18:23:06.147Z,34.80
2023-03-04T18:26:09.882Z,40.37
2023-03-04T18:29:13.779Z,35.57
2023-03-04T18:32:17.752Z,40.13
2023-03-04T18:35:23.302Z,40.10
2023-03-04T18:38:27.330Z,39.57
2023-03-04T18:41:31.209Z,40.40
2023-03-04T18:44:35.756Z,58.83
2023-03-04T18:47:40.870Z,46.10
2023-03-04T18:50:46.247Z,37.93
2023-03-04T18:53:50.067Z,38.00
2023-03-04T18:56:55.859Z,46.23
2023-03-04T19:00:01.236Z,47.67
2023-03-04T19:03:10.313Z,50.53
2023-03-04T19:06:15.772Z,50.80
2023-03-04T19:09:20.020Z,47.40
2023-03-04T19:12:23.885Z,46.57
2023-03-04T19:15:27.806Z,41.93
2023-03-04T19:18:31.722Z,37.33
2023-03-04T19:21:40.440Z,35.93
2023-03-04T19:24:44.246Z,35.83
2023-03-04T19:27:48.003Z,37.57
2023-03-04T19:30:53.171Z,35.40
2023-03-04T19:33:57.037Z,33.20
2023-03-04T19:37:02.344Z,33.47
2023-03-04T19:40:07.791Z,31.60
2023-03-04T19:43:11.516Z,30.57
2023-03-04T19:46:16.258Z,30.90
2023-03-04T19:49:20.860Z,35.63
2023-03-04T19:52:26.199Z,41.17
2023-03-04T19:55:30.014Z,37.30
2023-03-04T19:58:33.743Z,42.77
2023-03-04T20:01:39.254Z,37.27
2023-03-04T20:04:43.189Z,35.67
2023-03-04T20:07:48.580Z,33.43
2023-03-04T20:10:52.333Z,38.00
2023-03-04T20:13:58.665Z,38.63
2023-03-04T20:17:07.266Z,35.73
2023-03-04T20:20:12.694Z,32.87
2023-03-04T20:23:20.586Z,35.63
2023-03-04T20:26:24.449Z,39.53
2023-03-04T20:29:29.235Z,42.23
2023-03-04T20:32:33.126Z,37.80
2023-03-04T20:35:38.877Z,39.47
2023-03-04T20:38:44.259Z,41.70
2023-03-04T20:41:48.139Z,38.90
2023-03-04T20:44:52.017Z,37.50
2023-03-04T20:47:55.932Z,39.50
2023-03-04T20:50:59.748Z,35.93
2023-03-04T20:54:05.749Z,36.90
2023-03-04T20:57:11.069Z,45.53
2023-03-04T21:00:15.943Z,41.97
2023-03-04T21:03:19.727Z,36.60
2023-03-04T21:06:25.206Z,35.03
2023-03-04T21:09:30.841Z,33.27
2023-03-04T21:12:34.541Z,32.53
2023-03-04T21:15:38.703Z,33.67
2023-03-04T21:18:43.472Z,32.80
2023-03-04T21:21:48.344Z,32.43
2023-03-04T21:24:53.685Z,33.80
2023-03-04T21:27:57.530Z,33.67
2023-03-04T21:31:01.567Z,33.93
2023-03-04T21:34:05.466Z,32.90
2023-03-04T21:37:09.639Z,34.63
2023-03-04T21:40:15.628Z,33.03
2023-03-04T21:43:23.154Z,33.77
2023-03-04T21:46:27.130Z,33.70
2023-03-04T21:49:31.009Z,33.13
2023-03-04T21:52:34.823Z,33.23
2023-03-04T21:55:42.754Z,32.33
2023-03-04T21:58:46.670Z,30.43
2023-03-04T22:01:50.499Z,31.60
2023-03-04T22:04:54.396Z,30.53
2023-03-04T22:07:58.231Z,32.17
2023-03-04T22:16:06.824Z,26.30
2023-03-04T22:19:10.737Z,29.70
2023-03-04T22:22:18.225Z,28.93
2023-03-04T22:25:21.948Z,30.20
2023-03-04T22:28:28.632Z,31.90
2023-03-04T22:31:35.988Z,32.57
2023-03-04T22:34:40.934Z,31.57
2023-03-04T22:37:44.517Z,31.93
2023-03-04T22:40:49.188Z,33.83
2023-03-04T22:43:53.378Z,33.17
2023-03-04T22:46:58.674Z,32.07
2023-03-04T22:50:02.330Z,33.37
2023-03-04T22:53:08.312Z,30.70
2023-03-04T22:56:14.187Z,31.73
2023-03-04T22:59:17.926Z,30.53
2023-03-04T23:02:23.114Z,29.97
2023-03-04T23:05:27.105Z,30.33
2023-03-04T23:08:30.985Z,28.97
2023-03-04T23:11:36.763Z,27.47
2023-03-04T23:14:43.738Z,30.43
2023-03-04T23:17:49.352Z,28.77
2023-03-04T23:20:52.942Z,27.83
2023-03-04T23:23:56.616Z,27.10
2023-03-04T23:27:00.195Z,29.30
2023-03-04T23:30:03.841Z,27.43
2023-03-04T23:33:09.050Z,26.67
2023-03-04T23:36:15.299Z,28.80
2023-03-04T23:39:19.609Z,26.67
2023-03-04T23:42:23.298Z,27.03
2023-03-04T23:45:27.118Z,27.90
2023-03-04T23:48:32.391Z,27.93
2023-03-04T23:51:36.340Z,26.67
2023-03-04T23:54:40.055Z,27.03
2023-03-04T23:57:44.020Z,28.20
